sensor_id;sensor_type;location;lat;lon;timestamp;P1;durP1;ratioP1;P2;durP2;ratioP2
39016;SDS011;24784;45.582;5.276;2022-09-20T00:01:58;3.13;;;1.35;;
39016;SDS011;24784;45.582;5.276;2022-09-20T00:04:23;6.75;;;1.40;;
39016;SDS011;24784;45.582;5.276;2022-09-20T00:06:49;5.03;;;1.30;;
39016;SDS011;24784;45.582;5.276;2022-09-20T00:09:15;3.13;;;1.42;;
39016;SDS011;24784;45.582;5.276;2022-09-20T00:11:41;3.35;;;1.23;;
39016;SDS011;24784;45.582;5.276;2022-09-20T00:14:07;3.22;;;1.10;;
39016;SDS011;24784;45.582;5.276;2022-09-20T00:16:34;4.60;;;1.38;;
39016;SDS011;24784;45.582;5.276;2022-09-20T00:19:03;5.60;;;1.15;;
39016;SDS011;24784;45.582;5.276;2022-09-20T00:21:30;6.90;;;1.13;;
39016;SDS011;24784;45.582;5.276;2022-09-20T00:23:57;3.53;;;1.00;;
39016;SDS011;24784;45.582;5.276;2022-09-20T00:26:24;4.15;;;1.27;;
39016;SDS011;24784;45.582;5.276;2022-09-20T00:28:50;4.38;;;1.63;;
39016;SDS011;24784;45.582;5.276;2022-09-20T00:31:17;6.35;;;2.00;;
39016;SDS011;24784;45.582;5.276;2022-09-20T00:33:43;10.20;;;1.25;;
39016;SDS011;24784;45.582;5.276;2022-09-20T00:36:27;2.67;;;1.05;;
39016;SDS011;24784;45.582;5.276;2022-09-20T00:38:56;4.15;;;1.42;;
39016;SDS011;24784;45.582;5.276;2022-09-20T00:41:23;6.22;;;1.50;;
39016;SDS011;24784;45.582;5.276;2022-09-20T00:43:49;5.68;;;1.38;;
39016;SDS011;24784;45.582;5.276;2022-09-20T00:46:21;4.75;;;1.20;;
39016;SDS011;24784;45.582;5.276;2022-09-20T00:48:48;5.65;;;1.35;;
39016;SDS011;24784;45.582;5.276;2022-09-20T00:51:18;2.13;;;1.10;;
39016;SDS011;24784;45.582;5.276;2022-09-20T00:53:49;4.38;;;1.38;;
39016;SDS011;24784;45.582;5.276;2022-09-20T00:56:19;2.08;;;1.02;;
39016;SDS011;24784;45.582;5.276;2022-09-20T00:58:50;2.17;;;1.13;;
39016;SDS011;24784;45.582;5.276;2022-09-20T01:01:24;6.78;;;1.45;;
39016;SDS011;24784;45.582;5.276;2022-09-20T01:03:50;7.82;;;1.38;;
39016;SDS011;24784;45.582;5.276;2022-09-20T01:06:16;4.95;;;1.38;;
39016;SDS011;24784;45.582;5.276;2022-09-20T01:08:44;4.97;;;1.55;;
39016;SDS011;24784;45.582;5.276;2022-09-20T01:11:13;4.75;;;1.30;;
39016;SDS011;24784;45.582;5.276;2022-09-20T01:13:38;2.38;;;1.10;;
39016;SDS011;24784;45.582;5.276;2022-09-20T01:16:04;5.68;;;1.58;;
39016;SDS011;24784;45.582;5.276;2022-09-20T01:18:32;4.63;;;1.65;;
39016;SDS011;24784;45.582;5.276;2022-09-20T01:20:59;4.30;;;1.52;;
39016;SDS011;24784;45.582;5.276;2022-09-20T01:28:36;5.93;;;1.35;;
39016;SDS011;24784;45.582;5.276;2022-09-20T01:36:25;5.80;;;1.33;;
39016;SDS011;24784;45.582;5.276;2022-09-20T01:41:33;8.20;;;1.58;;
39016;SDS011;24784;45.582;5.276;2022-09-20T01:44:05;4.63;;;1.30;;
39016;SDS011;24784;45.582;5.276;2022-09-20T01:46:41;4.00;;;1.60;;
39016;SDS011;24784;45.582;5.276;2022-09-20T02:04:28;5.20;;;1.50;;
39016;SDS011;24784;45.582;5.276;2022-09-20T02:12:55;11.65;;;1.67;;
39016;SDS011;24784;45.582;5.276;2022-09-20T02:26:43;5.80;;;1.50;;
39016;SDS011;24784;45.582;5.276;2022-09-20T02:45:36;3.38;;;1.40;;
39016;SDS011;24784;45.582;5.276;2022-09-20T02:48:09;3.60;;;1.30;;
39016;SDS011;24784;45.582;5.276;2022-09-20T02:50:41;4.05;;;1.20;;
39016;SDS011;24784;45.582;5.276;2022-09-20T02:58:54;5.33;;;1.47;;
39016;SDS011;24784;45.582;5.276;2022-09-20T03:01:31;5.18;;;1.60;;
39016;SDS011;24784;45.582;5.276;2022-09-20T03:04:33;5.85;;;1.75;;
39016;SDS011;24784;45.582;5.276;2022-09-20T03:18:46;3.85;;;1.60;;
39016;SDS011;24784;45.582;5.276;2022-09-20T03:46:44;12.05;;;2.00;;
39016;SDS011;24784;45.582;5.276;2022-09-20T03:57:57;6.13;;;1.70;;
39016;SDS011;24784;45.582;5.276;2022-09-20T04:03:22;3.25;;;1.75;;
39016;SDS011;24784;45.582;5.276;2022-09-20T04:12:07;7.97;;;1.45;;
39016;SDS011;24784;45.582;5.276;2022-09-20T04:20:39;5.65;;;1.60;;
39016;SDS011;24784;45.582;5.276;2022-09-20T04:26:06;7.03;;;1.60;;
39016;SDS011;24784;45.582;5.276;2022-09-20T04:34:22;7.50;;;1.90;;
39016;SDS011;24784;45.582;5.276;2022-09-20T04:37:31;7.85;;;1.58;;
39016;SDS011;24784;45.582;5.276;2022-09-20T04:40:05;4.50;;;1.85;;
39016;SDS011;24784;45.582;5.276;2022-09-20T05:05:10;6.03;;;1.85;;
39016;SDS011;24784;45.582;5.276;2022-09-20T05:30:04;5.53;;;2.03;;
39016;SDS011;24784;45.582;5.276;2022-09-20T05:35:44;3.70;;;1.67;;
39016;SDS011;24784;45.582;5.276;2022-09-20T05:38:23;8.23;;;1.88;;
39016;SDS011;24784;45.582;5.276;2022-09-20T05:46:29;6.80;;;2.10;;
39016;SDS011;24784;45.582;5.276;2022-09-20T05:52:03;4.05;;;1.83;;
39016;SDS011;24784;45.582;5.276;2022-09-20T05:57:32;9.30;;;2.30;;
39016;SDS011;24784;45.582;5.276;2022-09-20T06:00:11;11.15;;;2.40;;
39016;SDS011;24784;45.582;5.276;2022-09-20T06:02:42;6.05;;;2.60;;
39016;SDS011;24784;45.582;5.276;2022-09-20T06:16:03;12.55;;;2.70;;
39016;SDS011;24784;45.582;5.276;2022-09-20T06:18:35;8.98;;;2.20;;
39016;SDS011;24784;45.582;5.276;2022-09-20T06:21:07;4.55;;;1.98;;
39016;SDS011;24784;45.582;5.276;2022-09-20T06:23:42;7.28;;;2.30;;
39016;SDS011;24784;45.582;5.276;2022-09-20T06:28:53;8.15;;;2.00;;
39016;SDS011;24784;45.582;5.276;2022-09-20T06:31:23;7.97;;;2.65;;
39016;SDS011;24784;45.582;5.276;2022-09-20T06:33:52;4.80;;;1.92;;
39016;SDS011;24784;45.582;5.276;2022-09-20T06:36:35;5.70;;;2.22;;
39016;SDS011;24784;45.582;5.276;2022-09-20T06:42:24;5.43;;;2.13;;
39016;SDS011;24784;45.582;5.276;2022-09-20T06:44:51;8.40;;;2.50;;
39016;SDS011;24784;45.582;5.276;2022-09-20T06:47:17;4.78;;;2.22;;
39016;SDS011;24784;45.582;5.276;2022-09-20T06:49:43;7.15;;;1.98;;
39016;SDS011;24784;45.582;5.276;2022-09-20T06:52:14;9.95;;;2.70;;
39016;SDS011;24784;45.582;5.276;2022-09-20T06:54:45;6.18;;;2.50;;
39016;SDS011;24784;45.582;5.276;2022-09-20T06:57:13;18.20;;;4.18;;
39016;SDS011;24784;45.582;5.276;2022-09-20T06:59:42;7.32;;;2.70;;
39016;SDS011;24784;45.582;5.276;2022-09-20T07:02:08;6.90;;;2.38;;
39016;SDS011;24784;45.582;5.276;2022-09-20T07:04:35;9.82;;;3.47;;
39016;SDS011;24784;45.582;5.276;2022-09-20T07:07:01;9.38;;;2.75;;
39016;SDS011;24784;45.582;5.276;2022-09-20T07:09:28;8.75;;;2.58;;
39016;SDS011;24784;45.582;5.276;2022-09-20T07:11:55;9.40;;;2.40;;
39016;SDS011;24784;45.582;5.276;2022-09-20T07:14:23;9.02;;;2.42;;
39016;SDS011;24784;45.582;5.276;2022-09-20T07:16:50;14.10;;;2.67;;
39016;SDS011;24784;45.582;5.276;2022-09-20T07:19:16;6.63;;;2.28;;
39016;SDS011;24784;45.582;5.276;2022-09-20T07:21:42;10.57;;;2.28;;
39016;SDS011;24784;45.582;5.276;2022-09-20T07:24:08;9.27;;;2.42;;
39016;SDS011;24784;45.582;5.276;2022-09-20T07:26:34;8.55;;;2.30;;
39016;SDS011;24784;45.582;5.276;2022-09-20T07:29:00;8.68;;;2.10;;
39016;SDS011;24784;45.582;5.276;2022-09-20T07:31:27;10.68;;;2.10;;
39016;SDS011;24784;45.582;5.276;2022-09-20T07:33:53;9.05;;;2.33;;
39016;SDS011;24784;45.582;5.276;2022-09-20T07:36:19;11.02;;;2.28;;
39016;SDS011;24784;45.582;5.276;2022-09-20T07:38:46;5.47;;;2.30;;
39016;SDS011;24784;45.582;5.276;2022-09-20T07:41:12;16.42;;;3.05;;
39016;SDS011;24784;45.582;5.276;2022-09-20T07:43:38;6.78;;;2.10;;
39016;SDS011;24784;45.582;5.276;2022-09-20T07:46:04;6.18;;;2.58;;
39016;SDS011;24784;45.582;5.276;2022-09-20T07:48:30;7.38;;;2.50;;
39016;SDS011;24784;45.582;5.276;2022-09-20T07:51:03;11.07;;;2.30;;
39016;SDS011;24784;45.582;5.276;2022-09-20T07:53:31;10.90;;;2.58;;
39016;SDS011;24784;45.582;5.276;2022-09-20T07:56:00;11.70;;;2.60;;
39016;SDS011;24784;45.582;5.276;2022-09-20T07:58:31;10.60;;;2.53;;
39016;SDS011;24784;45.582;5.276;2022-09-20T08:00:59;6.15;;;2.53;;
39016;SDS011;24784;45.582;5.276;2022-09-20T08:03:27;8.48;;;2.50;;
39016;SDS011;24784;45.582;5.276;2022-09-20T08:06:02;10.20;;;2.88;;
39016;SDS011;24784;45.582;5.276;2022-09-20T08:08:33;10.80;;;2.67;;
39016;SDS011;24784;45.582;5.276;2022-09-20T08:11:04;5.57;;;2.13;;
39016;SDS011;24784;45.582;5.276;2022-09-20T08:13:35;6.85;;;2.50;;
39016;SDS011;24784;45.582;5.276;2022-09-20T08:16:03;10.52;;;2.47;;
39016;SDS011;24784;45.582;5.276;2022-09-20T08:18:31;6.55;;;2.88;;
39016;SDS011;24784;45.582;5.276;2022-09-20T08:21:02;10.60;;;2.63;;
39016;SDS011;24784;45.582;5.276;2022-09-20T08:23:35;10.32;;;2.28;;
39016;SDS011;24784;45.582;5.276;2022-09-20T08:26:06;13.65;;;2.40;;
39016;SDS011;24784;45.582;5.276;2022-09-20T08:28:36;8.27;;;2.30;;
39016;SDS011;24784;45.582;5.276;2022-09-20T08:33:29;12.30;;;2.35;;
39016;SDS011;24784;45.582;5.276;2022-09-20T08:35:55;6.00;;;2.30;;
39016;SDS011;24784;45.582;5.276;2022-09-20T08:38:20;5.03;;;1.77;;
39016;SDS011;24784;45.582;5.276;2022-09-20T08:40:51;5.35;;;1.88;;
39016;SDS011;24784;45.582;5.276;2022-09-20T08:43:26;6.75;;;1.70;;
39016;SDS011;24784;45.582;5.276;2022-09-20T08:45:56;6.57;;;2.80;;
39016;SDS011;24784;45.582;5.276;2022-09-20T08:48:26;12.80;;;2.13;;
39016;SDS011;24784;45.582;5.276;2022-09-20T08:50:57;5.63;;;1.80;;
39016;SDS011;24784;45.582;5.276;2022-09-20T08:53:24;8.77;;;2.13;;
39016;SDS011;24784;45.582;5.276;2022-09-20T08:55:53;9.73;;;2.00;;
39016;SDS011;24784;45.582;5.276;2022-09-20T08:58:22;12.48;;;3.45;;
39016;SDS011;24784;45.582;5.276;2022-09-20T09:00:48;4.35;;;1.70;;
39016;SDS011;24784;45.582;5.276;2022-09-20T09:03:14;6.60;;;2.40;;
39016;SDS011;24784;45.582;5.276;2022-09-20T09:08:54;4.25;;;2.00;;
39016;SDS011;24784;45.582;5.276;2022-09-20T09:11:03;6.43;;;1.75;;
39016;SDS011;24784;45.582;5.276;2022-09-20T09:16:22;12.25;;;2.53;;
39016;SDS011;24784;45.582;5.276;2022-09-20T09:18:49;12.77;;;2.00;;
39016;SDS011;24784;45.582;5.276;2022-09-20T09:21:21;5.85;;;1.80;;
39016;SDS011;24784;45.582;5.276;2022-09-20T09:24:04;8.43;;;2.33;;
39016;SDS011;24784;45.582;5.276;2022-09-20T09:26:34;8.07;;;2.28;;
39016;SDS011;24784;45.582;5.276;2022-09-20T09:29:22;5.00;;;1.70;;
39016;SDS011;24784;45.582;5.276;2022-09-20T09:31:51;10.15;;;1.90;;
39016;SDS011;24784;45.582;5.276;2022-09-20T09:34:26;6.38;;;1.90;;
39016;SDS011;24784;45.582;5.276;2022-09-20T09:36:55;4.68;;;2.05;;
39016;SDS011;24784;45.582;5.276;2022-09-20T09:41:55;4.13;;;1.80;;
39016;SDS011;24784;45.582;5.276;2022-09-20T09:44:33;12.77;;;1.90;;
39016;SDS011;24784;45.582;5.276;2022-09-20T09:47:00;5.53;;;1.90;;
39016;SDS011;24784;45.582;5.276;2022-09-20T09:49:27;6.60;;;2.40;;
39016;SDS011;24784;45.582;5.276;2022-09-20T09:54:30;8.90;;;2.30;;
39016;SDS011;24784;45.582;5.276;2022-09-20T10:02:56;6.03;;;1.88;;
39016;SDS011;24784;45.582;5.276;2022-09-20T10:05:55;6.63;;;2.47;;
39016;SDS011;24784;45.582;5.276;2022-09-20T10:11:29;6.47;;;2.05;;
39016;SDS011;24784;45.582;5.276;2022-09-20T10:14:17;10.40;;;2.00;;
39016;SDS011;24784;45.582;5.276;2022-09-20T10:30:33;2.70;;;1.30;;
39016;SDS011;24784;45.582;5.276;2022-09-20T10:38:44;4.47;;;1.55;;
39016;SDS011;24784;45.582;5.276;2022-09-20T10:44:35;6.68;;;1.70;;
39016;SDS011;24784;45.582;5.276;2022-09-20T10:47:15;6.55;;;1.67;;
39016;SDS011;24784;45.582;5.276;2022-09-20T11:10:49;3.63;;;1.30;;
39016;SDS011;24784;45.582;5.276;2022-09-20T11:15:59;3.80;;;1.42;;
39016;SDS011;24784;45.582;5.276;2022-09-20T11:26:59;3.83;;;1.52;;
39016;SDS011;24784;45.582;5.276;2022-09-20T11:32:40;3.50;;;1.40;;
39016;SDS011;24784;45.582;5.276;2022-09-20T11:37:45;7.43;;;1.50;;
39016;SDS011;24784;45.582;5.276;2022-09-20T11:40:31;7.07;;;1.98;;
39016;SDS011;24784;45.582;5.276;2022-09-20T11:43:01;6.65;;;1.60;;
39016;SDS011;24784;45.582;5.276;2022-09-20T11:45:30;7.20;;;1.40;;
39016;SDS011;24784;45.582;5.276;2022-09-20T11:48:15;2.92;;;1.33;;
39016;SDS011;24784;45.582;5.276;2022-09-20T11:56:29;3.15;;;1.08;;
39016;SDS011;24784;45.582;5.276;2022-09-20T11:58:58;3.72;;;1.40;;
39016;SDS011;24784;45.582;5.276;2022-09-20T12:04:10;5.90;;;1.98;;
39016;SDS011;24784;45.582;5.276;2022-09-20T12:12:45;4.53;;;1.30;;
39016;SDS011;24784;45.582;5.276;2022-09-20T12:15:23;6.80;;;1.80;;
39016;SDS011;24784;45.582;5.276;2022-09-20T12:34:44;5.10;;;1.95;;
39016;SDS011;24784;45.582;5.276;2022-09-20T12:36:42;5.43;;;1.10;;
39016;SDS011;24784;45.582;5.276;2022-09-20T13:03:27;4.57;;;1.40;;
39016;SDS011;24784;45.582;5.276;2022-09-20T13:08:41;7.30;;;1.33;;
39016;SDS011;24784;45.582;5.276;2022-09-20T13:13:40;4.00;;;1.00;;
39016;SDS011;24784;45.582;5.276;2022-09-20T13:16:20;12.32;;;1.33;;
39016;SDS011;24784;45.582;5.276;2022-09-20T13:21:32;7.32;;;1.42;;
39016;SDS011;24784;45.582;5.276;2022-09-20T13:24:01;6.85;;;1.13;;
39016;SDS011;24784;45.582;5.276;2022-09-20T13:26:30;4.65;;;1.25;;
39016;SDS011;24784;45.582;5.276;2022-09-20T13:29:00;10.07;;;1.45;;
39016;SDS011;24784;45.582;5.276;2022-09-20T13:31:31;6.10;;;1.45;;
39016;SDS011;24784;45.582;5.276;2022-09-20T13:34:11;3.88;;;1.15;;
39016;SDS011;24784;45.582;5.276;2022-09-20T13:36:38;5.35;;;1.20;;
39016;SDS011;24784;45.582;5.276;2022-09-20T13:39:04;2.80;;;1.20;;
39016;SDS011;24784;45.582;5.276;2022-09-20T13:41:31;4.38;;;1.25;;
39016;SDS011;24784;45.582;5.276;2022-09-20T13:43:59;6.72;;;1.70;;
39016;SDS011;24784;45.582;5.276;2022-09-20T13:46:32;5.07;;;1.35;;
39016;SDS011;24784;45.582;5.276;2022-09-20T13:49:19;3.88;;;1.23;;
39016;SDS011;24784;45.582;5.276;2022-09-20T13:51:47;4.63;;;1.30;;
39016;SDS011;24784;45.582;5.276;2022-09-20T13:54:31;5.05;;;1.63;;
39016;SDS011;24784;45.582;5.276;2022-09-20T13:56:59;2.83;;;1.00;;
39016;SDS011;24784;45.582;5.276;2022-09-20T13:59:29;7.68;;;1.80;;
39016;SDS011;24784;45.582;5.276;2022-09-20T14:02:19;6.30;;;1.50;;
39016;SDS011;24784;45.582;5.276;2022-09-20T14:04:47;6.43;;;1.65;;
39016;SDS011;24784;45.582;5.276;2022-09-20T14:07:15;5.68;;;1.98;;
39016;SDS011;24784;45.582;5.276;2022-09-20T14:09:41;2.80;;;1.20;;
39016;SDS011;24784;45.582;5.276;2022-09-20T14:12:09;5.20;;;1.42;;
39016;SDS011;24784;45.582;5.276;2022-09-20T14:14:37;8.20;;;1.73;;
39016;SDS011;24784;45.582;5.276;2022-09-20T14:17:04;5.68;;;1.50;;
39016;SDS011;24784;45.582;5.276;2022-09-20T14:19:35;5.13;;;1.20;;
39016;SDS011;24784;45.582;5.276;2022-09-20T14:22:05;4.60;;;1.42;;
39016;SDS011;24784;45.582;5.276;2022-09-20T14:24:32;6.72;;;1.23;;
39016;SDS011;24784;45.582;5.276;2022-09-20T14:29:40;7.38;;;1.50;;
39016;SDS011;24784;45.582;5.276;2022-09-20T14:37:24;3.78;;;1.30;;
39016;SDS011;24784;45.582;5.276;2022-09-20T14:39:57;3.58;;;1.40;;
39016;SDS011;24784;45.582;5.276;2022-09-20T14:47:52;5.07;;;1.60;;
39016;SDS011;24784;45.582;5.276;2022-09-20T14:52:58;4.20;;;1.60;;
39016;SDS011;24784;45.582;5.276;2022-09-20T14:55:26;8.13;;;1.88;;
39016;SDS011;24784;45.582;5.276;2022-09-20T14:57:59;6.35;;;1.35;;
39016;SDS011;24784;45.582;5.276;2022-09-20T15:00:29;4.68;;;1.42;;
39016;SDS011;24784;45.582;5.276;2022-09-20T15:03:09;3.22;;;1.35;;
39016;SDS011;24784;45.582;5.276;2022-09-20T15:05:39;3.00;;;1.23;;
39016;SDS011;24784;45.582;5.276;2022-09-20T15:08:09;8.43;;;1.15;;
39016;SDS011;24784;45.582;5.276;2022-09-20T15:10:37;4.28;;;1.17;;
39016;SDS011;24784;45.582;5.276;2022-09-20T15:13:02;4.68;;;1.30;;
39016;SDS011;24784;45.582;5.276;2022-09-20T15:15:28;8.65;;;1.45;;
39016;SDS011;24784;45.582;5.276;2022-09-20T15:17:54;4.45;;;1.10;;
39016;SDS011;24784;45.582;5.276;2022-09-20T15:20:20;4.03;;;1.40;;
39016;SDS011;24784;45.582;5.276;2022-09-20T15:22:46;7.10;;;1.20;;
39016;SDS011;24784;45.582;5.276;2022-09-20T15:25:14;4.00;;;1.42;;
39016;SDS011;24784;45.582;5.276;2022-09-20T15:27:44;3.63;;;1.20;;
39016;SDS011;24784;45.582;5.276;2022-09-20T15:30:15;3.65;;;1.20;;
39016;SDS011;24784;45.582;5.276;2022-09-20T15:32:43;4.03;;;1.10;;
39016;SDS011;24784;45.582;5.276;2022-09-20T15:35:10;4.13;;;1.08;;
39016;SDS011;24784;45.582;5.276;2022-09-20T15:37:37;4.28;;;1.38;;
39016;SDS011;24784;45.582;5.276;2022-09-20T15:40:04;3.15;;;1.15;;
39016;SDS011;24784;45.582;5.276;2022-09-20T15:42:31;9.43;;;1.23;;
39016;SDS011;24784;45.582;5.276;2022-09-20T15:45:02;6.45;;;1.42;;
39016;SDS011;24784;45.582;5.276;2022-09-20T15:47:38;3.92;;;1.48;;
39016;SDS011;24784;45.582;5.276;2022-09-20T15:50:04;2.17;;;1.13;;
39016;SDS011;24784;45.582;5.276;2022-09-20T15:52:35;4.20;;;1.20;;
39016;SDS011;24784;45.582;5.276;2022-09-20T15:55:04;5.45;;;1.25;;
39016;SDS011;24784;45.582;5.276;2022-09-20T15:57:31;4.68;;;1.02;;
39016;SDS011;24784;45.582;5.276;2022-09-20T15:59:58;3.97;;;1.08;;
39016;SDS011;24784;45.582;5.276;2022-09-20T16:02:25;4.20;;;1.20;;
39016;SDS011;24784;45.582;5.276;2022-09-20T16:04:51;3.42;;;1.00;;
39016;SDS011;24784;45.582;5.276;2022-09-20T16:07:20;8.93;;;2.28;;
39016;SDS011;24784;45.582;5.276;2022-09-20T16:09:53;11.50;;;3.30;;
39016;SDS011;24784;45.582;5.276;2022-09-20T16:12:20;7.32;;;1.70;;
39016;SDS011;24784;45.582;5.276;2022-09-20T16:14:47;3.83;;;1.20;;
39016;SDS011;24784;45.582;5.276;2022-09-20T16:17:13;4.63;;;1.20;;
39016;SDS011;24784;45.582;5.276;2022-09-20T16:19:40;6.22;;;1.40;;
39016;SDS011;24784;45.582;5.276;2022-09-20T16:22:06;6.95;;;2.00;;
39016;SDS011;24784;45.582;5.276;2022-09-20T16:24:33;8.90;;;2.35;;
39016;SDS011;24784;45.582;5.276;2022-09-20T16:27:01;4.07;;;1.20;;
39016;SDS011;24784;45.582;5.276;2022-09-20T16:29:29;8.73;;;1.45;;
39016;SDS011;24784;45.582;5.276;2022-09-20T16:31:55;4.90;;;1.58;;
39016;SDS011;24784;45.582;5.276;2022-09-20T16:34:22;6.45;;;1.40;;
39016;SDS011;24784;45.582;5.276;2022-09-20T16:36:55;8.13;;;1.40;;
39016;SDS011;24784;45.582;5.276;2022-09-20T16:39:34;4.85;;;1.23;;
39016;SDS011;24784;45.582;5.276;2022-09-20T16:42:00;6.68;;;1.50;;
39016;SDS011;24784;45.582;5.276;2022-09-20T16:44:29;4.15;;;1.50;;
39016;SDS011;24784;45.582;5.276;2022-09-20T16:46:59;4.60;;;1.20;;
39016;SDS011;24784;45.582;5.276;2022-09-20T16:49:25;7.63;;;1.33;;
39016;SDS011;24784;45.582;5.276;2022-09-20T16:51:52;3.55;;;1.30;;
39016;SDS011;24784;45.582;5.276;2022-09-20T16:54:18;5.00;;;1.05;;
39016;SDS011;24784;45.582;5.276;2022-09-20T16:56:49;5.85;;;1.50;;
39016;SDS011;24784;45.582;5.276;2022-09-20T16:59:18;5.07;;;1.10;;
39016;SDS011;24784;45.582;5.276;2022-09-20T17:01:45;4.70;;;1.30;;
39016;SDS011;24784;45.582;5.276;2022-09-20T17:04:12;5.25;;;1.40;;
39016;SDS011;24784;45.582;5.276;2022-09-20T17:06:39;5.20;;;1.20;;
39016;SDS011;24784;45.582;5.276;2022-09-20T17:09:07;6.28;;;1.45;;
39016;SDS011;24784;45.582;5.276;2022-09-20T17:11:37;3.42;;;1.60;;
39016;SDS011;24784;45.582;5.276;2022-09-20T17:14:11;3.97;;;1.38;;
39016;SDS011;24784;45.582;5.276;2022-09-20T17:16:39;4.30;;;1.13;;
39016;SDS011;24784;45.582;5.276;2022-09-20T17:19:10;4.28;;;1.77;;
39016;SDS011;24784;45.582;5.276;2022-09-20T17:21:38;9.30;;;1.50;;
39016;SDS011;24784;45.582;5.276;2022-09-20T17:24:07;3.13;;;1.25;;
39016;SDS011;24784;45.582;5.276;2022-09-20T17:26:34;7.50;;;1.35;;
39016;SDS011;24784;45.582;5.276;2022-09-20T17:29:05;5.00;;;1.40;;
39016;SDS011;24784;45.582;5.276;2022-09-20T17:31:38;7.90;;;1.67;;
39016;SDS011;24784;45.582;5.276;2022-09-20T17:34:06;6.43;;;1.20;;
39016;SDS011;24784;45.582;5.276;2022-09-20T17:36:37;9.93;;;1.58;;
39016;SDS011;24784;45.582;5.276;2022-09-20T17:39:08;4.63;;;1.30;;
39016;SDS011;24784;45.582;5.276;2022-09-20T17:41:36;3.38;;;1.17;;
39016;SDS011;24784;45.582;5.276;2022-09-20T17:44:03;11.55;;;1.63;;
39016;SDS011;24784;45.582;5.276;2022-09-20T17:46:34;5.20;;;1.00;;
39016;SDS011;24784;45.582;5.276;2022-09-20T17:49:02;5.57;;;2.10;;
39016;SDS011;24784;45.582;5.276;2022-09-20T17:51:32;5.40;;;1.75;;
39016;SDS011;24784;45.582;5.276;2022-09-20T17:54:00;3.25;;;1.17;;
39016;SDS011;24784;45.582;5.276;2022-09-20T17:56:26;5.72;;;1.60;;
39016;SDS011;24784;45.582;5.276;2022-09-20T17:58:53;5.65;;;1.50;;
39016;SDS011;24784;45.582;5.276;2022-09-20T18:01:21;7.13;;;1.83;;
39016;SDS011;24784;45.582;5.276;2022-09-20T18:03:47;6.57;;;1.50;;
39016;SDS011;24784;45.582;5.276;2022-09-20T18:08:50;9.38;;;1.70;;
39016;SDS011;24784;45.582;5.276;2022-09-20T18:11:22;5.85;;;1.65;;
39016;SDS011;24784;45.582;5.276;2022-09-20T18:13:51;5.70;;;1.40;;
39016;SDS011;24784;45.582;5.276;2022-09-20T18:16:17;6.20;;;1.85;;
39016;SDS011;24784;45.582;5.276;2022-09-20T18:18:43;9.45;;;1.40;;
39016;SDS011;24784;45.582;5.276;2022-09-20T18:21:11;7.72;;;1.50;;
39016;SDS011;24784;45.582;5.276;2022-09-20T18:23:43;3.80;;;1.35;;
39016;SDS011;24784;45.582;5.276;2022-09-20T18:26:16;7.80;;;1.60;;
39016;SDS011;24784;45.582;5.276;2022-09-20T18:28:46;4.13;;;1.50;;
39016;SDS011;24784;45.582;5.276;2022-09-20T18:31:15;4.93;;;1.00;;
39016;SDS011;24784;45.582;5.276;2022-09-20T18:33:41;4.15;;;1.40;;
39016;SDS011;24784;45.582;5.276;2022-09-20T18:36:07;7.13;;;1.70;;
39016;SDS011;24784;45.582;5.276;2022-09-20T18:38:33;5.15;;;1.67;;
39016;SDS011;24784;45.582;5.276;2022-09-20T18:40:59;4.47;;;1.60;;
39016;SDS011;24784;45.582;5.276;2022-09-20T18:43:27;3.00;;;1.20;;
39016;SDS011;24784;45.582;5.276;2022-09-20T18:45:56;4.28;;;1.30;;
39016;SDS011;24784;45.582;5.276;2022-09-20T18:48:23;6.20;;;1.40;;
39016;SDS011;24784;45.582;5.276;2022-09-20T18:50:57;5.47;;;1.30;;
39016;SDS011;24784;45.582;5.276;2022-09-20T18:53:28;4.80;;;1.70;;
39016;SDS011;24784;45.582;5.276;2022-09-20T18:56:06;4.97;;;1.27;;
39016;SDS011;24784;45.582;5.276;2022-09-20T18:58:34;12.63;;;1.35;;
39016;SDS011;24784;45.582;5.276;2022-09-20T19:06:29;5.13;;;1.27;;
39016;SDS011;24784;45.582;5.276;2022-09-20T19:09:07;5.03;;;1.60;;
39016;SDS011;24784;45.582;5.276;2022-09-20T19:11:42;7.10;;;1.52;;
39016;SDS011;24784;45.582;5.276;2022-09-20T19:14:20;12.07;;;1.88;;
39016;SDS011;24784;45.582;5.276;2022-09-20T19:16:59;7.15;;;1.50;;
39016;SDS011;24784;45.582;5.276;2022-09-20T19:24:55;8.45;;;2.03;;
39016;SDS011;24784;45.582;5.276;2022-09-20T19:27:28;5.28;;;1.65;;
39016;SDS011;24784;45.582;5.276;2022-09-20T19:29:54;3.75;;;1.35;;
39016;SDS011;24784;45.582;5.276;2022-09-20T19:32:20;5.75;;;1.70;;
39016;SDS011;24784;45.582;5.276;2022-09-20T19:34:50;9.75;;;1.98;;
39016;SDS011;24784;45.582;5.276;2022-09-20T19:45:44;10.98;;;2.60;;
39016;SDS011;24784;45.582;5.276;2022-09-20T19:48:38;8.50;;;2.97;;
39016;SDS011;24784;45.582;5.276;2022-09-20T19:51:10;15.05;;;4.10;;
39016;SDS011;24784;45.582;5.276;2022-09-20T19:53:38;6.55;;;2.67;;
39016;SDS011;24784;45.582;5.276;2022-09-20T19:56:21;8.30;;;2.08;;
39016;SDS011;24784;45.582;5.276;2022-09-20T19:58:48;4.13;;;1.92;;
39016;SDS011;24784;45.582;5.276;2022-09-20T20:01:18;8.50;;;1.60;;
39016;SDS011;24784;45.582;5.276;2022-09-20T20:03:46;7.53;;;2.38;;
39016;SDS011;24784;45.582;5.276;2022-09-20T20:06:25;4.82;;;1.50;;
39016;SDS011;24784;45.582;5.276;2022-09-20T20:13:55;5.63;;;1.80;;
39016;SDS011;24784;45.582;5.276;2022-09-20T20:25:00;6.70;;;1.65;;
39016;SDS011;24784;45.582;5.276;2022-09-20T20:27:26;6.25;;;2.30;;
39016;SDS011;24784;45.582;5.276;2022-09-20T20:29:56;10.57;;;2.55;;
39016;SDS011;24784;45.582;5.276;2022-09-20T20:32:22;6.30;;;2.30;;
39016;SDS011;24784;45.582;5.276;2022-09-20T20:34:48;10.57;;;3.03;;
39016;SDS011;24784;45.582;5.276;2022-09-20T20:37:14;4.65;;;2.10;;
39016;SDS011;24784;45.582;5.276;2022-09-20T20:39:40;6.18;;;2.58;;
39016;SDS011;24784;45.582;5.276;2022-09-20T20:42:06;6.20;;;2.67;;
39016;SDS011;24784;45.582;5.276;2022-09-20T20:44:34;9.13;;;2.60;;
39016;SDS011;24784;45.582;5.276;2022-09-20T20:47:00;12.20;;;2.60;;
39016;SDS011;24784;45.582;5.276;2022-09-20T20:49:26;10.20;;;2.20;;
39016;SDS011;24784;45.582;5.276;2022-09-20T20:51:52;4.00;;;1.35;;
39016;SDS011;24784;45.582;5.276;2022-09-20T20:54:20;7.55;;;2.22;;
39016;SDS011;24784;45.582;5.276;2022-09-20T20:56:45;5.18;;;1.30;;
39016;SDS011;24784;45.582;5.276;2022-09-20T20:59:11;4.40;;;1.52;;
39016;SDS011;24784;45.582;5.276;2022-09-20T21:01:38;8.00;;;1.52;;
39016;SDS011;24784;45.582;5.276;2022-09-20T21:04:10;3.00;;;1.38;;
39016;SDS011;24784;45.582;5.276;2022-09-20T21:06:37;4.65;;;1.80;;
39016;SDS011;24784;45.582;5.276;2022-09-20T21:09:04;7.38;;;1.65;;
39016;SDS011;24784;45.582;5.276;2022-09-20T21:11:32;5.30;;;1.50;;
39016;SDS011;24784;45.582;5.276;2022-09-20T21:14:00;3.92;;;1.70;;
39016;SDS011;24784;45.582;5.276;2022-09-20T21:16:29;4.70;;;1.70;;
39016;SDS011;24784;45.582;5.276;2022-09-20T21:18:59;5.65;;;1.80;;
39016;SDS011;24784;45.582;5.276;2022-09-20T21:21:25;4.45;;;1.60;;
39016;SDS011;24784;45.582;5.276;2022-09-20T21:23:54;3.40;;;1.75;;
39016;SDS011;24784;45.582;5.276;2022-09-20T21:26:25;3.67;;;1.40;;
39016;SDS011;24784;45.582;5.276;2022-09-20T21:28:55;9.15;;;1.90;;
39016;SDS011;24784;45.582;5.276;2022-09-20T21:31:26;2.92;;;1.77;;
39016;SDS011;24784;45.582;5.276;2022-09-20T21:33:53;5.22;;;1.67;;
39016;SDS011;24784;45.582;5.276;2022-09-20T21:36:20;6.75;;;2.10;;
39016;SDS011;24784;45.582;5.276;2022-09-20T21:38:47;4.97;;;1.50;;
39016;SDS011;24784;45.582;5.276;2022-09-20T21:41:16;3.97;;;1.75;;
39016;SDS011;24784;45.582;5.276;2022-09-20T21:43:44;7.68;;;1.20;;
39016;SDS011;24784;45.582;5.276;2022-09-20T21:46:12;5.70;;;1.35;;
39016;SDS011;24784;45.582;5.276;2022-09-20T21:48:45;3.13;;;1.40;;
39016;SDS011;24784;45.582;5.276;2022-09-20T21:51:12;6.47;;;1.98;;
39016;SDS011;24784;45.582;5.276;2022-09-20T21:53:40;6.63;;;1.83;;